Time;durP1;ratioP1;P1;durP2;ratioP2;P2;SDS_P1;SDS_P2;PMS_P1;PMS_P2;Temp;Humidity;BMP_temperature;BMP_pressure;BME280_temperature;BME280_humidity;BME280_pressure;Samples;Min_cycle;Max_cycle;Signal;HPM_P1;HPM_P2
2023/06/10 00:00:26;;;;;;;0.20;0.20;;;14.60;99.90;;;;;;5087914;28;20040;-76
2023/06/10 00:02:51;;;;;;;;;;;14.50;99.90;;;;;;5087750;28;20093;-76
2023/06/10 00:05:21;;;;;;;0.20;0.20;;;14.40;99.90;;;;;;5087856;28;20016;-76
2023/06/10 00:07:48;;;;;;;0.30;0.30;;;14.40;99.90;;;;;;5088445;28;20043;-75
2023/06/10 00:10:13;;;;;;;0.30;0.30;;;14.30;99.90;;;;;;5088184;28;20448;-75
2023/06/10 00:12:40;;;;;;;0.30;0.30;;;14.20;99.90;;;;;;5088379;28;20338;-76
2023/06/10 00:15:06;;;;;;;0.20;0.20;;;14.20;99.90;;;;;;5087191;28;20501;-76
2023/06/10 00:17:32;;;;;;;0.20;0.20;;;14.00;99.90;;;;;;5069608;28;20568;-75
2023/06/10 00:19:58;;;;;;;0.30;0.30;;;14.00;99.90;;;;;;5070370;28;20158;-75
2023/06/10 00:22:29;;;;;;;0.32;0.32;;;13.90;99.90;;;;;;5087827;28;20153;-76
2023/06/10 00:24:56;;;;;;;0.28;0.28;;;13.90;99.90;;;;;;5087530;28;20047;-75
2023/06/10 00:27:22;;;;;;;0.50;0.50;;;13.80;99.90;;;;;;5122374;28;20040;-75
2023/06/10 00:29:48;;;;;;;0.45;0.45;;;13.70;99.90;;;;;;5104791;28;20055;-76
2023/06/10 00:32:13;;;;;;;;;;;13.70;99.90;;;;;;5087810;28;20047;-75
2023/06/10 00:34:39;;;;;;;0.32;0.32;;;13.70;99.90;;;;;;5072154;28;19916;-73
2023/06/10 00:37:05;;;;;;;0.13;0.13;;;13.70;99.90;;;;;;5089138;28;20083;-73
2023/06/10 00:39:30;;;;;;;;;;;13.80;99.90;;;;;;5088765;28;20043;-74
2023/06/10 00:41:56;;;;;;;0.55;0.55;;;13.90;99.90;;;;;;5070886;28;20015;-75
2023/06/10 00:44:22;;;;;;;0.30;0.30;;;14.00;99.90;;;;;;5070552;28;20093;-75
2023/06/10 00:46:51;;;;;;;0.30;0.30;;;14.00;99.90;;;;;;5087787;28;20040;-74
2023/06/10 00:49:16;;;;;;;0.30;0.30;;;14.10;99.90;;;;;;5089279;28;20051;-74
2023/06/10 00:51:42;;;;;;;0.30;0.30;;;14.10;99.90;;;;;;5074745;28;20044;-74
2023/06/10 00:54:08;;;;;;;0.30;0.30;;;14.20;99.90;;;;;;5091457;28;20036;-75
2023/06/10 00:56:36;;;;;;;0.25;0.25;;;14.20;99.90;;;;;;5091711;28;20040;-74
2023/06/10 00:59:01;;;;;;;0.30;0.30;;;14.20;99.90;;;;;;5091476;28;20059;-75
2023/06/10 01:01:29;;;;;;;0.30;0.30;;;14.10;99.90;;;;;;5074378;28;20501;-74
2023/06/10 01:03:55;;;;;;;0.30;0.30;;;14.10;99.90;;;;;;5090681;28;20036;-74
2023/06/10 01:06:47;;;;;;;;;;;14.10;99.90;;;;;;5091408;28;20055;-74
2023/06/10 01:09:36;;;;;;;0.20;0.20;;;14.20;99.90;;;;;;5090512;28;19927;-74
2023/06/10 01:12:20;;;;;;;0.25;0.25;;;14.10;99.90;;;;;;5090591;28;20052;-74
2023/06/10 01:14:48;;;;;;;0.30;0.30;;;14.10;99.90;;;;;;5090644;28;20115;-74
2023/06/10 01:17:16;;;;;;;0.40;0.40;;;14.10;99.90;;;;;;5073516;28;20054;-74
2023/06/10 01:19:43;;;;;;;0.30;0.30;;;14.00;99.90;;;;;;5090667;28;20050;-74
2023/06/10 01:22:10;;;;;;;0.20;0.20;;;14.00;99.90;;;;;;5090122;28;20480;-74
2023/06/10 01:24:40;;;;;;;1.85;0.68;;;14.00;99.90;;;;;;5073648;28;20048;-74
2023/06/10 01:27:12;;;;;;;0.35;0.35;;;13.90;99.90;;;;;;5070063;28;20037;-74
2023/06/10 01:29:45;;;;;;;0.30;0.30;;;14.00;99.90;;;;;;5070423;28;20044;-74
2023/06/10 01:32:18;;;;;;;0.30;0.30;;;13.90;99.90;;;;;;5069957;28;20047;-75
2023/06/10 01:34:45;;;;;;;0.30;0.30;;;14.00;99.90;;;;;;5099255;28;20501;-75
2023/06/10 01:37:17;;;;;;;0.43;0.43;;;14.00;99.90;;;;;;5073548;28;20063;-74
2023/06/10 01:39:44;;;;;;;0.65;0.47;;;14.00;99.90;;;;;;5090131;28;20060;-74
2023/06/10 01:42:11;;;;;;;0.30;0.30;;;14.00;99.90;;;;;;5090344;28;20136;-74
2023/06/10 01:44:39;;;;;;;0.45;0.45;;;13.90;99.90;;;;;;5090025;28;20043;-74
2023/06/10 01:47:05;;;;;;;0.28;0.28;;;13.80;99.90;;;;;;5072666;28;20132;-75
2023/06/10 01:49:31;;;;;;;0.43;0.40;;;13.80;99.90;;;;;;5073863;28;20437;-74
2023/06/10 01:51:56;;;;;;;0.32;0.32;;;13.70;99.90;;;;;;5082414;28;20083;-74
2023/06/10 01:54:22;;;;;;;0.50;0.50;;;13.60;99.90;;;;;;5096546;28;20182;-75
2023/06/10 01:56:47;;;;;;;0.20;0.20;;;13.60;99.90;;;;;;5073491;28;20134;-74
2023/06/10 01:59:13;;;;;;;;;;;13.50;99.90;;;;;;5072870;28;20752;-74
2023/06/10 02:01:39;;;;;;;0.30;0.30;;;13.50;99.90;;;;;;5089285;28;19950;-74
2023/06/10 02:04:04;;;;;;;0.40;0.40;;;13.40;99.90;;;;;;5089753;28;20028;-74
2023/06/10 02:06:30;;;;;;;;;;;13.30;99.90;;;;;;5073457;28;20081;-74
2023/06/10 02:08:56;;;;;;;0.40;0.40;;;13.30;99.90;;;;;;5072727;28;19920;-74
2023/06/10 02:11:21;;;;;;;0.40;0.35;;;13.20;99.90;;;;;;5072268;28;20147;-74
2023/06/10 02:13:47;;;;;;;0.30;0.30;;;13.10;99.90;;;;;;5072483;28;20048;-74
2023/06/10 02:16:13;;;;;;;0.32;0.32;;;13.00;99.90;;;;;;5089483;28;20048;-74
2023/06/10 02:18:42;;;;;;;0.40;0.40;;;12.90;99.90;;;;;;5072444;28;20066;-74
2023/06/10 02:21:08;;;;;;;0.20;0.20;;;12.90;99.90;;;;;;5072323;28;20083;-74
2023/06/10 02:23:34;;;;;;;0.28;0.28;;;12.70;99.90;;;;;;5089591;28;20768;-74
2023/06/10 02:26:01;;;;;;;0.55;0.55;;;12.60;99.90;;;;;;5068835;28;20048;-74
2023/06/10 02:28:27;;;;;;;0.75;0.75;;;12.50;99.90;;;;;;5052525;28;20106;-74
2023/06/10 02:30:53;;;;;;;0.38;0.38;;;12.40;99.90;;;;;;5052511;28;20131;-74
2023/06/10 02:33:19;;;;;;;;;;;12.30;99.90;;;;;;5069246;28;20052;-74
2023/06/10 02:35:45;;;;;;;0.85;0.50;;;12.30;99.90;;;;;;5072476;28;19920;-75
2023/06/10 02:38:11;;;;;;;;;;;12.20;99.90;;;;;;5089506;28;20428;-75
2023/06/10 02:40:37;;;;;;;0.30;0.30;;;12.10;99.90;;;;;;5072154;28;19924;-75
2023/06/10 02:43:02;;;;;;;;;;;12.00;99.90;;;;;;5089196;28;20116;-75
2023/06/10 02:45:28;;;;;;;0.40;0.40;;;11.90;99.90;;;;;;5089166;28;19916;-75
2023/06/10 02:47:54;;;;;;;0.28;0.28;;;11.80;99.90;;;;;;5089203;28;20048;-75
2023/06/10 02:50:20;;;;;;;0.40;0.40;;;11.80;99.90;;;;;;5088855;28;20086;-75
2023/06/10 02:52:45;;;;;;;;;;;11.70;99.90;;;;;;5105588;28;20070;-75
2023/06/10 02:55:11;;;;;;;0.40;0.40;;;11.60;99.90;;;;;;5088334;28;19915;-74
2023/06/10 02:57:37;;;;;;;0.30;0.30;;;11.60;99.90;;;;;;5089166;28;20120;-75
2023/06/10 03:00:09;;;;;;;0.22;0.22;;;11.50;99.90;;;;;;5088514;28;20044;-75
2023/06/10 03:02:36;;;;;;;0.50;0.50;;;11.50;99.90;;;;;;5088568;28;20079;-74
2023/06/10 03:05:02;;;;;;;0.30;0.30;;;11.40;99.90;;;;;;5088028;28;20469;-74
2023/06/10 03:07:28;;;;;;;;;;;11.50;99.90;;;;;;5088097;28;20179;-74
2023/06/10 03:09:54;;;;;;;0.30;0.30;;;11.40;99.90;;;;;;5071163;28;20412;-74
2023/06/10 03:12:19;;;;;;;0.30;0.30;;;11.40;99.90;;;;;;5087672;28;20052;-75
2023/06/10 03:14:45;;;;;;;0.32;0.32;;;11.40;99.90;;;;;;5089122;28;20043;-75
2023/06/10 03:17:11;;;;;;;0.38;0.38;;;11.40;99.90;;;;;;5089879;28;20043;-75
2023/06/10 03:19:37;;;;;;;0.32;0.32;;;11.50;99.90;;;;;;5088835;28;20499;-75
2023/06/10 03:22:11;;;;;;;0.40;0.40;;;11.40;99.90;;;;;;5088629;28;20439;-75
2023/06/10 03:24:39;;;;;;;0.30;0.30;;;11.50;99.90;;;;;;5088643;28;20435;-75
2023/06/10 03:27:11;;;;;;;0.38;0.38;;;11.50;99.90;;;;;;5051794;28;20451;-75
2023/06/10 03:29:38;;;;;;;0.38;0.38;;;11.50;99.90;;;;;;5068993;28;20049;-75
2023/06/10 03:32:03;;;;;;;;;;;11.60;99.90;;;;;;5069397;28;20045;-75
2023/06/10 03:34:29;;;;;;;0.43;0.43;;;11.50;99.90;;;;;;5101932;28;19923;-75
2023/06/10 03:36:56;;;;;;;0.40;0.40;;;11.50;99.90;;;;;;5051537;28;20110;-75
2023/06/10 03:39:23;;;;;;;0.40;0.40;;;11.50;99.90;;;;;;5085728;28;20040;-75
2023/06/10 03:41:49;;;;;;;0.40;0.40;;;11.60;99.90;;;;;;5088307;28;20055;-75
2023/06/10 03:44:15;;;;;;;0.50;0.50;;;11.60;99.90;;;;;;5087605;28;20093;-75
2023/06/10 03:46:40;;;;;;;0.30;0.30;;;11.60;99.90;;;;;;5071232;28;20043;-75
2023/06/10 03:49:06;;;;;;;0.30;0.30;;;11.70;99.90;;;;;;5088320;28;20094;-75
2023/06/10 03:51:32;;;;;;;0.38;0.38;;;11.90;99.90;;;;;;5090000;28;20044;-75
2023/06/10 03:53:57;;;;;;;0.93;0.93;;;12.00;99.90;;;;;;5055495;28;20083;-75
2023/06/10 03:56:23;;;;;;;0.40;0.40;;;12.00;99.90;;;;;;5088357;28;20036;-75
2023/06/10 03:58:49;;;;;;;0.40;0.40;;;12.00;99.90;;;;;;5088369;28;20083;-75
2023/06/10 04:01:15;;;;;;;0.35;0.35;;;12.00;99.90;;;;;;5071225;28;20044;-75
2023/06/10 04:03:43;;;;;;;0.30;0.30;;;12.10;99.90;;;;;;5071731;28;20127;-75
2023/06/10 04:06:09;;;;;;;0.30;0.30;;;12.10;99.90;;;;;;5090604;28;20032;-75
2023/06/10 04:08:35;;;;;;;1.85;0.47;;;12.10;99.90;;;;;;5089110;28;20047;-75
2023/06/10 04:11:02;;;;;;;0.60;0.60;;;12.10;99.90;;;;;;5088693;28;20600;-75
2023/06/10 04:13:27;;;;;;;;;;;12.10;99.90;;;;;;5088536;28;20044;-75
2023/06/10 04:15:54;;;;;;;0.50;0.50;;;12.20;99.90;;;;;;5089520;28;19941;-75
2023/06/10 04:18:21;;;;;;;0.40;0.40;;;12.20;99.90;;;;;;5093055;28;20044;-76
2023/06/10 04:20:47;;;;;;;0.30;0.30;;;12.30;99.90;;;;;;5054611;28;20134;-75
2023/06/10 04:23:13;;;;;;;0.30;0.30;;;12.30;99.90;;;;;;5088149;28;20040;-75
2023/06/10 04:25:38;;;;;;;0.30;0.30;;;12.30;99.90;;;;;;5092849;28;20040;-75
2023/06/10 04:28:04;;;;;;;0.30;0.30;;;12.40;99.90;;;;;;5092079;28;20044;-75
2023/06/10 04:30:31;;;;;;;0.30;0.30;;;12.40;99.90;;;;;;5057925;28;20052;-75
2023/06/10 04:32:57;;;;;;;0.30;0.30;;;12.50;99.90;;;;;;5092497;28;20040;-75
2023/06/10 04:35:22;;;;;;;;;;;12.60;99.90;;;;;;5091951;28;20423;-75
2023/06/10 04:37:48;;;;;;;0.40;0.40;;;12.60;99.90;;;;;;5091703;28;19939;-74
2023/06/10 04:40:15;;;;;;;0.90;0.90;;;12.70;99.90;;;;;;5091415;28;20040;-75
2023/06/10 04:42:41;;;;;;;0.30;0.30;;;12.80;99.90;;;;;;5092430;28;20127;-75
2023/06/10 04:45:07;;;;;;;;;;;12.90;99.90;;;;;;5074908;28;20075;-76
2023/06/10 04:47:33;;;;;;;0.43;0.43;;;13.10;99.90;;;;;;5074362;28;19970;-76
2023/06/10 04:50:02;;;;;;;;;;;13.20;99.90;;;;;;5074952;28;20601;-74
2023/06/10 04:52:28;;;;;;;0.47;0.47;;;13.30;99.90;;;;;;5087496;28;19919;-74
2023/06/10 04:54:54;;;;;;;0.40;0.40;;;13.50;99.90;;;;;;5073604;28;20052;-75
2023/06/10 04:57:20;;;;;;;0.30;0.30;;;13.60;99.90;;;;;;5087388;28;20130;-75
2023/06/10 04:59:46;;;;;;;;;;;13.70;99.90;;;;;;5105169;28;20085;-74
2023/06/10 05:02:12;;;;;;;1.75;0.95;;;13.80;99.90;;;;;;5054415;28;20368;-75
2023/06/10 05:04:37;;;;;;;0.60;0.60;;;13.70;99.90;;;;;;5104934;28;20076;-75
2023/06/10 05:07:04;;;;;;;0.30;0.30;;;14.00;99.90;;;;;;5104817;28;20462;-75
2023/06/10 05:09:30;;;;;;;0.50;0.50;;;14.00;99.90;;;;;;5070380;28;20048;-74
2023/06/10 05:11:56;;;;;;;0.47;0.35;;;14.10;99.90;;;;;;5071114;28;20062;-75
2023/06/10 05:14:22;;;;;;;0.30;0.30;;;14.20;99.90;;;;;;5095946;28;20040;-75
2023/06/10 05:16:48;;;;;;;0.25;0.25;;;14.30;99.90;;;;;;5074309;28;20101;-74
2023/06/10 05:19:16;;;;;;;0.20;0.20;;;14.30;99.90;;;;;;5090517;28;20048;-75
2023/06/10 05:21:42;;;;;;;0.45;0.45;;;14.40;99.90;;;;;;5091213;28;20052;-75
2023/06/10 05:24:08;;;;;;;0.40;0.40;;;14.40;99.90;;;;;;5091267;28;20210;-74
2023/06/10 05:26:37;;;;;;;0.43;0.43;;;14.50;99.90;;;;;;5090147;28;20477;-75
2023/06/10 05:29:06;;;;;;;0.77;0.77;;;14.50;99.90;;;;;;5090994;28;20044;-75
2023/06/10 05:31:32;;;;;;;0.30;0.30;;;14.50;99.90;;;;;;5073275;28;20094;-74
2023/06/10 05:33:58;;;;;;;0.35;0.35;;;14.50;99.90;;;;;;5090876;28;20443;-74
2023/06/10 05:36:25;;;;;;;;;;;14.60;99.90;;;;;;5091583;28;20109;-75
2023/06/10 05:38:50;;;;;;;1.55;1.00;;;14.60;99.90;;;;;;5090454;28;19973;-74
2023/06/10 05:41:16;;;;;;;0.70;0.70;;;14.60;99.90;;;;;;5073243;28;20044;-74
2023/06/10 05:43:42;;;;;;;;;;;14.70;99.90;;;;;;5091074;28;20036;-75
2023/06/10 05:46:08;;;;;;;0.28;0.28;;;14.80;99.90;;;;;;5124747;27;19920;-75
2023/06/10 05:48:33;;;;;;;;;;;14.80;99.90;;;;;;5073295;28;20040;-75
2023/06/10 05:50:59;;;;;;;0.20;0.20;;;14.90;99.90;;;;;;5090230;28;19919;-75
2023/06/10 05:53:25;;;;;;;0.22;0.22;;;14.90;99.90;;;;;;5073274;28;20036;-75
2023/06/10 05:55:51;;;;;;;;;;;15.00;99.90;;;;;;5073558;28;20546;-74
2023/06/10 05:58:16;;;;;;;0.20;0.20;;;15.00;99.90;;;;;;5107285;27;20281;-75
2023/06/10 06:00:42;;;;;;;0.85;0.85;;;15.10;99.90;;;;;;5090002;28;20059;-75
2023/06/10 06:03:08;;;;;;;;;;;15.10;99.90;;;;;;5073473;28;20397;-75
2023/06/10 06:05:35;;;;;;;0.30;0.30;;;15.20;99.90;;;;;;5089804;28;19920;-75
2023/06/10 06:08:19;;;;;;;0.32;0.32;;;15.10;99.90;;;;;;5089771;28;20039;-75
2023/06/10 06:10:45;;;;;;;0.82;0.52;;;15.20;99.90;;;;;;5072917;28;20363;-75
2023/06/10 06:13:11;;;;;;;0.30;0.30;;;15.30;99.90;;;;;;5056805;28;20113;-75
2023/06/10 06:15:37;;;;;;;0.65;0.65;;;15.30;99.90;;;;;;5072542;28;20117;-75
2023/06/10 06:18:02;;;;;;;;;;;15.40;99.90;;;;;;5073724;28;20047;-75
2023/06/10 06:20:28;;;;;;;0.20;0.20;;;15.40;99.90;;;;;;5072415;28;19924;-74
2023/06/10 06:22:54;;;;;;;;;;;15.50;99.90;;;;;;5097679;28;20044;-75
2023/06/10 06:25:20;;;;;;;0.63;0.63;;;15.60;99.90;;;;;;5090945;28;19931;-75
2023/06/10 06:27:45;;;;;;;;;;;15.70;99.90;;;;;;5108934;28;20370;-75
2023/06/10 06:30:11;;;;;;;0.50;0.50;;;15.70;99.90;;;;;;5057700;28;19916;-75
2023/06/10 06:32:37;;;;;;;0.50;0.50;;;15.70;99.90;;;;;;5090179;28;20105;-75
2023/06/10 06:35:05;;;;;;;0.55;0.50;;;15.70;99.90;;;;;;5072962;28;20439;-75
2023/06/10 06:37:31;;;;;;;0.40;0.40;;;15.80;99.90;;;;;;5072613;28;20401;-75
2023/06/10 06:39:57;;;;;;;;;;;15.80;99.90;;;;;;5090012;28;20044;-75
2023/06/10 06:42:23;;;;;;;0.43;0.43;;;15.90;99.90;;;;;;5072994;28;20102;-75
2023/06/10 06:44:49;;;;;;;;;;;16.10;99.90;;;;;;5073832;28;20044;-75
2023/06/10 06:47:14;;;;;;;1.05;0.90;;;16.20;99.90;;;;;;5089219;28;19920;-75
2023/06/10 06:49:40;;;;;;;;;;;16.30;99.90;;;;;;5072534;28;20053;-75
2023/06/10 06:52:06;;;;;;;0.75;0.75;;;16.40;99.90;;;;;;5099565;28;19916;-74
2023/06/10 06:54:31;;;;;;;;;;;16.60;99.90;;;;;;5077436;28;20044;-75
2023/06/10 06:56:57;;;;;;;0.20;0.20;;;16.70;99.90;;;;;;5088892;28;19920;-75
2023/06/10 06:59:23;;;;;;;;;;;16.80;99.90;;;;;;5072192;28;20382;-75
2023/06/10 07:01:49;;;;;;;0.20;0.20;;;16.90;99.90;;;;;;5088806;28;19924;-75
2023/06/10 07:04:15;;;;;;;;;;;17.00;99.90;;;;;;5089466;28;20043;-75
2023/06/10 07:06:41;;;;;;;0.40;0.40;;;17.10;99.90;;;;;;5088711;28;19916;-75
2023/06/10 07:09:09;;;;;;;;;;;17.20;99.90;;;;;;5089428;28;20473;-75
2023/06/10 07:11:35;;;;;;;0.30;0.30;;;17.40;99.90;;;;;;5088535;28;19927;-75
2023/06/10 07:14:01;;;;;;;;;;;17.50;99.90;;;;;;5072573;28;20062;-75
2023/06/10 07:16:26;;;;;;;0.30;0.30;;;17.70;99.90;;;;;;5071723;28;19920;-75
2023/06/10 07:18:55;;;;;;;;;;;17.90;99.90;;;;;;5089083;28;20043;-75
2023/06/10 07:21:22;;;;;;;0.10;0.10;;;18.00;99.90;;;;;;5071596;28;19986;-75
2023/06/10 07:23:48;;;;;;;0.40;0.40;;;18.10;99.90;;;;;;5088606;28;20051;-75
2023/06/10 07:26:13;;;;;;;;;;;18.20;99.90;;;;;;5068856;28;20513;-74
2023/06/10 07:28:40;;;;;;;1.02;0.93;;;18.30;99.90;;;;;;5102082;28;20065;-74
2023/06/10 07:31:06;;;;;;;0.47;0.47;;;18.40;99.90;;;;;;5102462;28;20044;-73
2023/06/10 07:33:32;;;;;;;0.32;0.32;;;18.40;99.90;;;;;;5070096;28;20052;-74
2023/06/10 07:35:58;;;;;;;;;;;18.50;99.90;;;;;;5088956;28;20050;-74
2023/06/10 07:38:25;;;;;;;0.20;0.20;;;18.60;99.90;;;;;;5105543;28;19926;-75
2023/06/10 07:40:50;;;;;;;0.25;0.25;;;18.70;99.90;;;;;;5087846;28;20079;-75
2023/06/10 07:43:16;;;;;;;;;;;18.80;99.90;;;;;;5105781;28;20113;-75
2023/06/10 07:45:42;;;;;;;0.32;0.32;;;18.80;99.90;;;;;;5071174;28;19927;-75
2023/06/10 07:48:09;;;;;;;0.20;0.20;;;18.90;99.90;;;;;;5088218;28;20042;-74
2023/06/10 07:50:35;;;;;;;0.85;0.65;;;18.90;99.90;;;;;;5087733;28;20055;-76
2023/06/10 07:53:01;;;;;;;0.55;0.55;;;19.00;99.90;;;;;;5087350;28;20051;-75
2023/06/10 07:55:27;;;;;;;0.35;0.25;;;19.00;99.90;;;;;;5088707;28;20044;-74
2023/06/10 07:57:53;;;;;;;0.35;0.35;;;19.00;99.90;;;;;;5087923;28;20064;-74
2023/06/10 08:00:20;;;;;;;0.40;0.40;;;19.00;99.90;;;;;;5074764;28;20114;-75
2023/06/10 08:02:46;;;;;;;0.32;0.32;;;19.20;99.90;;;;;;5091928;28;20114;-75
2023/06/10 08:05:12;;;;;;;0.30;0.30;;;19.20;99.90;;;;;;5075311;28;20039;-75
2023/06/10 08:07:37;;;;;;;;;;;19.40;99.90;;;;;;5092165;28;20373;-75
2023/06/10 08:10:06;;;;;;;0.20;0.20;;;19.50;99.90;;;;;;5075943;28;20018;-75
2023/06/10 08:12:32;;;;;;;0.38;0.38;;;19.50;99.90;;;;;;5074868;28;20132;-76
2023/06/10 08:14:58;;;;;;;0.50;0.50;;;19.60;99.90;;;;;;5091844;28;20051;-75
2023/06/10 08:17:24;;;;;;;0.10;0.10;;;19.80;99.90;;;;;;5091870;28;20052;-75
2023/06/10 08:19:50;;;;;;;;;;;19.90;99.90;;;;;;5075303;28;20079;-76
2023/06/10 08:22:16;;;;;;;0.22;0.22;;;20.00;99.90;;;;;;5058367;28;19983;-75
2023/06/10 08:24:41;;;;;;;;;;;20.10;99.90;;;;;;5130824;27;20048;-76
2023/06/10 08:27:07;;;;;;;0.32;0.32;;;20.10;99.90;;;;;;5092065;28;19920;-76
2023/06/10 08:29:32;;;;;;;;;;;20.20;99.90;;;;;;5126450;27;20047;-75
2023/06/10 08:31:58;;;;;;;0.20;0.20;;;20.30;99.90;;;;;;5091785;28;19939;-76
2023/06/10 08:34:24;;;;;;;;;;;20.50;99.90;;;;;;5093423;28;20058;-76
2023/06/10 08:36:53;;;;;;;0.20;0.20;;;20.60;99.90;;;;;;5091831;28;19981;-76
2023/06/10 08:39:19;;;;;;;0.55;0.52;;;20.60;99.90;;;;;;5092351;28;20096;-76
2023/06/10 08:41:59;;;;;;;0.60;0.60;;;20.70;99.90;;;;;;5074497;28;20048;-76
2023/06/10 08:44:29;;;;;;;0.57;0.57;;;20.80;99.90;;;;;;5074488;28;20486;-76
2023/06/10 08:47:00;;;;;;;0.60;0.60;;;20.90;99.90;;;;;;5087823;28;20501;-76
2023/06/10 08:49:28;;;;;;;0.65;0.57;;;20.90;99.90;;;;;;5102475;28;20052;-76
2023/06/10 08:51:59;;;;;;;0.22;0.22;;;21.00;99.90;;;;;;5099772;28;20050;-75
2023/06/10 08:54:35;;;;;;;0.15;0.15;;;21.00;99.90;;;;;;5098024;28;20052;-75
2023/06/10 08:57:06;;;;;;;0.30;0.30;;;21.00;99.90;;;;;;5091357;28;20051;-75
2023/06/10 08:59:32;;;;;;;0.30;0.30;;;21.10;99.90;;;;;;5074344;28;20044;-75
2023/06/10 09:01:59;;;;;;;0.30;0.30;;;21.20;99.90;;;;;;5091139;28;20047;-76
2023/06/10 09:04:25;;;;;;;0.28;0.28;;;21.30;99.90;;;;;;5091380;28;20048;-75
2023/06/10 09:06:52;;;;;;;0.20;0.20;;;21.30;99.90;;;;;;5091007;28;20121;-75
2023/06/10 09:09:20;;;;;;;0.10;0.10;;;21.40;99.90;;;;;;5091382;28;20048;-75
2023/06/10 09:11:45;;;;;;;0.52;0.52;;;21.50;99.90;;;;;;5090703;28;20082;-74
2023/06/10 09:14:12;;;;;;;1.20;1.10;;;21.60;99.90;;;;;;5091039;28;20477;-75
2023/06/10 09:16:39;;;;;;;0.20;0.20;;;21.70;99.90;;;;;;5074935;28;20401;-75
2023/06/10 09:19:07;;;;;;;0.40;0.40;;;21.80;99.90;;;;;;5091727;28;20074;-75
2023/06/10 09:21:35;;;;;;;0.17;0.17;;;21.90;99.90;;;;;;5075552;28;20071;-76
2023/06/10 09:24:01;;;;;;;1.13;0.85;;;21.90;99.90;;;;;;5091167;28;20511;-75
2023/06/10 09:26:30;;;;;;;0.30;0.30;;;22.00;99.90;;;;;;5087837;28;20050;-75
2023/06/10 09:29:11;;;;;;;0.25;0.25;;;22.00;99.90;;;;;;5090858;28;20073;-75
2023/06/10 09:31:39;;;;;;;0.20;0.20;;;22.10;99.90;;;;;;5090936;28;20040;-75
2023/06/10 09:34:16;;;;;;;0.60;0.60;;;22.20;99.90;;;;;;5091516;28;20436;-75
2023/06/10 09:36:43;;;;;;;0.85;0.85;;;22.30;99.90;;;;;;5090971;28;20036;-74
2023/06/10 09:39:16;;;;;;;0.45;0.45;;;22.30;99.90;;;;;;5091277;28;20044;-75
2023/06/10 09:41:43;;;;;;;0.65;0.52;;;22.40;99.90;;;;;;5090710;28;20054;-75
2023/06/10 09:44:16;;;;;;;0.40;0.40;;;22.50;99.90;;;;;;5074022;28;20036;-75
2023/06/10 09:46:45;;;;;;;0.30;0.30;;;22.60;99.90;;;;;;5074032;28;20048;-75
2023/06/10 09:49:10;;;;;;;0.20;0.20;;;22.70;99.90;;;;;;5090636;28;20040;-75
2023/06/10 09:51:36;;;;;;;0.55;0.55;;;22.70;99.90;;;;;;5090255;28;20047;-74
2023/06/10 09:54:03;;;;;;;0.20;0.20;;;22.70;99.90;;;;;;5040060;28;20079;-75
2023/06/10 09:56:36;;;;;;;0.20;0.20;;;22.60;99.90;;;;;;5090771;28;20044;-75
2023/06/10 09:59:02;;;;;;;0.85;0.43;;;22.70;99.90;;;;;;5073480;28;20043;-75
2023/06/10 10:01:30;;;;;;;0.35;0.35;;;22.70;99.90;;;;;;5090145;28;20036;-75
2023/06/10 10:03:56;;;;;;;0.55;0.55;;;22.70;99.90;;;;;;5073254;28;20401;-76
2023/06/10 10:06:21;;;;;;;0.25;0.25;;;22.80;99.90;;;;;;5073465;28;20032;-75
2023/06/10 10:08:49;;;;;;;0.20;0.20;;;22.80;99.90;;;;;;5090155;28;20072;-75
2023/06/10 10:11:18;;;;;;;0.47;0.47;;;23.00;99.90;;;;;;5089885;28;20490;-75
2023/06/10 10:13:51;;;;;;;1.10;1.10;;;23.20;99.90;;;;;;5072689;28;20040;-75
2023/06/10 10:16:22;;;;;;;0.50;0.50;;;23.30;99.90;;;;;;5090272;28;20036;-74
2023/06/10 10:18:55;;;;;;;0.35;0.35;;;23.30;99.90;;;;;;5089542;28;20055;-75
2023/06/10 10:21:31;;;;;;;0.35;0.35;;;23.40;99.90;;;;;;5089065;28;20060;-75
2023/06/10 10:24:14;;;;;;;1.38;0.50;;;23.60;99.90;;;;;;5072821;28;20040;-75
2023/06/10 10:26:41;;;;;;;0.20;0.20;;;23.70;99.90;;;;;;5089242;28;20104;-75
2023/06/10 10:29:31;;;;;;;0.32;0.32;;;23.80;99.90;;;;;;5072937;28;20079;-75
2023/06/10 10:32:00;;;;;;;0.22;0.22;;;24.00;99.90;;;;;;5072333;28;20047;-75
2023/06/10 10:34:56;;;;;;;0.20;0.20;;;24.10;99.90;;;;;;5089733;28;20043;-75
2023/06/10 10:37:22;;;;;;;0.50;0.45;;;24.20;99.90;;;;;;5089275;28;20040;-75
2023/06/10 10:39:48;;;;;;;0.20;0.20;;;24.00;99.90;;;;;;5089192;28;20040;-75
2023/06/10 10:42:15;;;;;;;0.15;0.15;;;23.90;99.90;;;;;;5089369;28;20044;-75
2023/06/10 10:44:41;;;;;;;0.25;0.25;;;23.90;99.90;;;;;;5089318;28;20051;-75
2023/06/10 10:47:09;;;;;;;0.20;0.20;;;24.10;99.90;;;;;;5072591;28;20098;-75
2023/06/10 10:49:37;;;;;;;0.30;0.30;;;24.20;99.90;;;;;;5089351;28;20127;-76
2023/06/10 10:52:06;;;;;;;0.40;0.40;;;24.40;99.90;;;;;;5099082;28;20112;-75
2023/06/10 10:54:37;;;;;;;0.10;0.10;;;24.50;99.90;;;;;;5094906;28;20370;-76
2023/06/10 10:57:09;;;;;;;0.22;0.22;;;24.60;99.90;;;;;;5088867;28;20048;-75
2023/06/10 10:59:51;;;;;;;0.20;0.20;;;24.80;99.90;;;;;;5089184;28;20876;-76
2023/06/10 11:02:35;;;;;;;0.20;0.20;;;25.00;99.90;;;;;;5089317;28;20044;-75
2023/06/10 11:05:01;;;;;;;0.30;0.30;;;25.10;98.90;;;;;;5088647;28;20493;-76
2023/06/10 11:07:30;;;;;;;0.63;0.63;;;25.20;99.90;;;;;;5089466;28;20508;-76
2023/06/10 11:10:00;;;;;;;0.17;0.17;;;25.30;97.50;;;;;;5088586;28;20048;-76
2023/06/10 11:12:26;;;;;;;0.22;0.22;;;25.30;97.70;;;;;;5089101;28;20040;-76
2023/06/10 11:14:56;;;;;;;0.20;0.20;;;25.30;97.50;;;;;;5088636;28;20051;-76
2023/06/10 11:17:22;;;;;;;3.45;1.00;;;25.50;96.20;;;;;;5089530;28;20389;-76
2023/06/10 11:19:47;;;;;;;1.40;0.60;;;25.60;98.30;;;;;;5088551;28;20048;-76
2023/06/10 11:22:20;;;;;;;0.82;0.70;;;25.80;97.70;;;;;;5088928;28;20051;-76
2023/06/10 11:24:56;;;;;;;0.60;0.60;;;25.90;95.60;;;;;;5089002;28;20051;-75
2023/06/10 11:27:24;;;;;;;0.43;0.30;;;26.00;96.30;;;;;;5088980;28;20047;-76
2023/06/10 11:30:05;;;;;;;0.70;0.32;;;26.10;95.20;;;;;;5089105;28;20120;-76
2023/06/10 11:32:32;;;;;;;0.20;0.20;;;26.20;92.90;;;;;;5089153;28;20098;-77
2023/06/10 11:34:58;;;;;;;0.63;0.63;;;26.20;96.30;;;;;;5122430;27;20045;-76
2023/06/10 11:37:24;;;;;;;0.30;0.30;;;26.40;94.50;;;;;;5088945;28;20055;-76
2023/06/10 11:39:56;;;;;;;0.52;0.38;;;26.30;93.90;;;;;;5088612;28;20063;-77
2023/06/10 11:42:22;;;;;;;0.20;0.20;;;26.30;93.60;;;;;;5088961;28;20039;-77
2023/06/10 11:44:53;;;;;;;0.40;0.40;;;26.10;94.30;;;;;;5088488;28;20035;-76
2023/06/10 11:47:20;;;;;;;0.52;0.50;;;25.90;94.90;;;;;;5089022;28;20058;-76
2023/06/10 11:49:55;;;;;;;0.40;0.40;;;25.80;95.20;;;;;;5088960;28;20046;-76
2023/06/10 11:52:37;;;;;;;0.38;0.25;;;25.80;93.40;;;;;;5088544;28;20508;-76
2023/06/10 11:55:04;;;;;;;0.20;0.20;;;26.00;94.60;;;;;;5071587;28;20078;-76
2023/06/10 11:57:34;;;;;;;0.17;0.17;;;26.20;95.70;;;;;;5088375;28;20051;-76
2023/06/10 12:00:05;;;;;;;0.55;0.55;;;26.50;94.60;;;;;;5070843;28;20052;-76
2023/06/10 12:02:31;;;;;;;0.47;0.47;;;26.40;93.30;;;;;;5088400;28;20109;-77
2023/06/10 12:05:11;;;;;;;0.47;0.47;;;26.40;93.40;;;;;;5071190;28;20036;-76
2023/06/10 12:07:36;;;;;;;0.20;0.20;;;26.60;93.40;;;;;;5088567;28;20122;-77
2023/06/10 12:10:02;;;;;;;0.45;0.45;;;26.90;92.50;;;;;;5054491;28;20445;-76
2023/06/10 12:12:28;;;;;;;1.17;1.13;;;26.80;91.40;;;;;;5088319;28;20040;-77
2023/06/10 12:14:58;;;;;;;0.30;0.30;;;26.80;91.90;;;;;;5088217;28;20083;-76
2023/06/10 12:17:30;;;;;;;0.40;0.40;;;26.70;90.20;;;;;;5088514;28;20382;-76
2023/06/10 12:19:56;;;;;;;0.28;0.22;;;26.80;93.70;;;;;;5088451;28;20397;-77
2023/06/10 12:22:23;;;;;;;0.88;0.50;;;26.80;92.20;;;;;;5088242;28;20497;-77
2023/06/10 12:25:02;;;;;;;0.93;0.60;;;26.80;93.30;;;;;;5087833;28;20036;-77
2023/06/10 12:27:30;;;;;;;0.40;0.40;;;27.00;93.40;;;;;;5090250;28;20058;-76
2023/06/10 12:30:00;;;;;;;0.28;0.28;;;27.20;93.20;;;;;;5121579;28;20489;-77
2023/06/10 12:32:43;;;;;;;0.40;0.40;;;27.50;93.40;;;;;;5088391;28;20063;-77
2023/06/10 12:35:17;;;;;;;0.30;0.25;;;27.70;93.10;;;;;;5104785;28;20126;-76
2023/06/10 12:38:00;;;;;;;0.17;0.17;;;27.90;92.20;;;;;;5088303;28;20058;-77
2023/06/10 12:40:35;;;;;;;0.30;0.30;;;28.20;93.80;;;;;;5088443;28;20508;-77
2023/06/10 12:43:02;;;;;;;0.40;0.40;;;28.30;91.80;;;;;;5087760;28;20213;-77
2023/06/10 12:45:29;;;;;;;0.22;0.22;;;28.00;91.40;;;;;;5089867;28;20067;-77
2023/06/10 12:48:23;;;;;;;0.20;0.20;;;28.00;92.20;;;;;;5091645;28;20048;-76
2023/06/10 12:50:57;;;;;;;0.15;0.15;;;28.20;90.30;;;;;;5091921;28;20044;-78
2023/06/10 12:53:26;;;;;;;0.40;0.40;;;28.50;91.20;;;;;;5080904;28;20123;-77
2023/06/10 12:55:52;;;;;;;0.20;0.20;;;28.50;91.30;;;;;;5076182;28;20366;-77
2023/06/10 12:58:19;;;;;;;0.35;0.35;;;28.70;90.80;;;;;;5092077;28;20051;-77
2023/06/10 13:00:45;;;;;;;0.52;0.52;;;28.90;90.30;;;;;;5091602;28;20054;-77